Time;durP1;ratioP1;P1;durP2;ratioP2;P2;SDS_P1;SDS_P2;PMS_P1;PMS_P2;Temp;Humidity;BMP_temperature;BMP_pressure;BME280_temperature;BME280_humidity;BME280_pressure;Samples;Min_cycle;Max_cycle;Signal;HPM_P1;HPM_P2
2021/10/27 00:01:03;;;;;;;35.95;8.55;;;;;;;10.61;83.66;100084.91;5104693;28;20058;-71
2021/10/27 00:03:29;;;;;;;28.95;9.07;;;;;;;10.62;83.60;100068.44;5104786;28;20103;-71
2021/10/27 00:05:54;;;;;;;27.40;8.90;;;;;;;10.60;83.70;100072.81;5104676;28;20487;-71
2021/10/27 00:08:20;;;;;;;34.00;9.45;;;;;;;10.62;83.90;100071.03;5104623;28;20028;-71
2021/10/27 00:10:45;;;;;;;26.65;7.47;;;;;;;10.61;84.03;100068.44;5104386;28;20504;-70
2021/10/27 00:13:11;;;;;;;29.13;8.55;;;;;;;10.62;84.08;100059.81;5104606;28;20048;-71
2021/10/27 00:15:36;;;;;;;23.70;7.80;;;;;;;10.57;84.23;100065.06;5104502;28;20024;-72
2021/10/27 00:18:02;;;;;;;24.23;7.22;;;;;;;10.60;83.95;100057.22;5104671;28;20039;-73
2021/10/27 00:20:27;;;;;;;26.80;8.63;;;;;;;10.59;84.19;100054.66;5104503;28;20070;-72
2021/10/27 00:22:53;;;;;;;24.85;7.43;;;;;;;10.57;84.04;100036.50;5104471;28;20103;-71
2021/10/27 00:25:19;;;;;;;19.73;7.03;;;;;;;10.49;84.34;100036.63;5119891;28;20048;-72
2021/10/27 00:27:44;;;;;;;21.88;6.95;;;;;;;10.52;84.70;100043.50;5103913;28;20031;-71
2021/10/27 00:30:11;;;;;;;20.27;6.60;;;;;;;10.52;84.21;100033.97;5104485;28;20016;-71
2021/10/27 00:32:37;;;;;;;27.67;6.30;;;;;;;10.49;84.69;100033.16;5104364;28;20028;-71
2021/10/27 00:35:03;;;;;;;16.88;5.32;;;;;;;10.49;84.54;100030.56;5104590;28;20031;-71
2021/10/27 00:37:28;;;;;;;18.83;5.60;;;;;;;10.47;84.58;100029.72;5104253;28;20051;-71
2021/10/27 00:39:54;;;;;;;26.75;5.57;;;;;;;10.48;84.49;100027.09;5104100;28;20108;-70
2021/10/27 00:42:19;;;;;;;20.45;5.50;;;;;;;10.39;84.54;100022.88;5104081;28;20043;-70
2021/10/27 00:44:45;;;;;;;20.45;5.10;;;;;;;10.46;84.39;100023.69;5104090;28;20056;-72
2021/10/27 00:47:13;;;;;;;17.95;5.07;;;;;;;10.46;84.16;100017.59;5104056;28;20024;-72
2021/10/27 00:49:41;;;;;;;20.88;5.68;;;;;;;10.48;83.91;100024.50;5104031;28;20020;-72
2021/10/27 00:52:10;;;;;;;16.63;5.00;;;;;;;10.48;83.80;100026.25;5103932;28;20034;-72
2021/10/27 00:54:39;;;;;;;19.40;4.72;;;;;;;10.51;83.51;100018.44;5103189;28;20111;-70
2021/10/27 00:57:05;;;;;;;13.40;5.72;;;;;;;10.49;83.72;100015.00;5103724;28;20024;-70
2021/10/27 00:59:31;;;;;;;17.25;5.30;;;;;;;10.46;83.60;100018.50;5103876;28;20028;-70
2021/10/27 01:01:57;;;;;;;20.23;5.82;;;;;;;10.50;83.46;100019.28;5103850;28;20031;-70
2021/10/27 01:04:26;;;;;;;19.40;6.05;;;;;;;10.41;83.61;100010.72;5103781;28;20023;-69
2021/10/27 01:06:51;;;;;;;17.65;4.30;;;;;;;10.30;83.96;100010.03;5119342;28;20024;-72
2021/10/27 01:09:18;;;;;;;8.43;2.83;;;;;;;10.17;84.59;100005.00;5103698;28;20038;-72
2021/10/27 01:11:44;;;;;;;12.27;3.35;;;;;;;10.07;84.90;100008.59;5103610;28;20016;-70
2021/10/27 01:14:10;;;;;;;12.68;2.80;;;;;;;10.03;85.16;99999.16;5103619;28;20118;-71
2021/10/27 01:16:36;;;;;;;20.83;3.90;;;;;;;9.97;85.55;99997.47;5103835;28;20049;-70
2021/10/27 01:19:02;;;;;;;16.58;3.92;;;;;;;9.91;85.57;99980.28;5103640;28;20034;-71
2021/10/27 01:21:31;;;;;;;14.27;3.30;;;;;;;9.89;85.78;99986.31;5103558;28;20035;-72
2021/10/27 01:23:58;;;;;;;17.63;3.17;;;;;;;9.87;85.97;99972.53;5103334;28;20044;-71
2021/10/27 01:26:24;;;;;;;9.82;2.33;;;;;;;9.79;86.11;99959.69;5085229;28;20047;-71
2021/10/27 01:28:51;;;;;;;9.38;2.72;;;;;;;9.81;86.10;99959.66;5103163;28;20044;-72
2021/10/27 01:31:17;;;;;;;10.23;2.30;;;;;;;9.69;86.38;99942.50;5103697;28;20073;-72
2021/10/27 01:33:44;;;;;;;11.52;2.63;;;;;;;9.70;86.71;99933.84;5103558;28;20020;-73
2021/10/27 01:36:10;;;;;;;9.75;2.47;;;;;;;9.70;87.12;99959.78;5103496;28;20039;-73
2021/10/27 01:38:36;;;;;;;13.25;3.15;;;;;;;9.71;87.27;99949.41;5085237;28;20024;-72
2021/10/27 01:41:02;;;;;;;9.30;2.10;;;;;;;9.75;87.22;99945.88;5103293;28;20081;-71
2021/10/27 01:43:27;;;;;;;11.27;2.55;;;;;;;9.75;86.92;99922.56;5103417;28;20027;-70
2021/10/27 01:45:53;;;;;;;8.25;2.70;;;;;;;9.74;86.97;99927.75;5103536;28;20060;-69
2021/10/27 01:48:19;;;;;;;5.85;1.50;;;;;;;9.76;87.02;99933.81;5085120;28;20053;-67
2021/10/27 01:50:44;;;;;;;4.82;1.60;;;;;;;9.65;87.67;99927.00;5103776;28;20026;-67
2021/10/27 01:53:10;;;;;;;4.25;1.38;;;;;;;9.58;88.00;99920.19;5119247;28;20020;-68
2021/10/27 01:55:36;;;;;;;7.88;1.92;;;;;;;9.62;87.86;99915.81;5103208;28;20491;-67
2021/10/27 01:58:02;;;;;;;5.22;1.30;;;;;;;9.58;88.11;99908.94;5102980;28;20024;-67
2021/10/27 02:00:28;;;;;;;6.78;0.98;;;;;;;9.67;87.81;99904.53;5102204;28;20072;-67
2021/10/27 02:02:53;;;;;;;8.35;1.80;;;;;;;9.58;88.57;99907.22;5102343;28;20035;-68
2021/10/27 02:05:19;;;;;;;5.57;1.42;;;;;;;9.61;88.64;99894.22;5105125;28;20023;-69
2021/10/27 02:07:44;;;;;;;7.55;1.70;;;;;;;9.56;89.08;99893.44;5107095;28;20039;-70
2021/10/27 02:10:11;;;;;;;6.07;1.70;;;;;;;9.59;89.36;99883.03;5088845;28;20028;-69
2021/10/27 02:12:38;;;;;;;3.95;1.52;;;;;;;9.61;89.47;99872.63;5107194;28;20051;-69
2021/10/27 02:15:04;;;;;;;3.80;1.90;;;;;;;9.61;89.62;99872.63;5107287;28;20372;-70
2021/10/27 02:17:30;;;;;;;5.00;1.73;;;;;;;9.63;89.96;99866.53;5122655;28;20568;-70
2021/10/27 02:19:56;;;;;;;3.38;1.83;;;;;;;9.67;90.15;99867.38;5106960;28;20024;-71
2021/10/27 02:22:21;;;;;;;3.72;1.77;;;;;;;9.78;90.01;99859.44;5106821;28;20063;-70
2021/10/27 02:24:47;;;;;;;3.72;1.48;;;;;;;9.72;90.73;99846.56;5106543;28;20044;-69
2021/10/27 02:27:12;;;;;;;6.78;2.00;;;;;;;9.76;90.93;99856.03;5106693;28;20036;-71
2021/10/27 02:29:37;;;;;;;6.38;1.85;;;;;;;9.77;91.23;99843.03;5107094;28;20130;-70
2021/10/27 02:32:03;;;;;;;4.88;1.58;;;;;;;9.82;91.48;99845.56;5106690;28;20020;-71
2021/10/27 02:34:29;;;;;;;4.05;1.98;;;;;;;9.83;91.96;99831.72;5106755;28;20035;-70
2021/10/27 02:36:55;;;;;;;4.57;2.00;;;;;;;9.91;91.99;99827.28;5107066;28;20052;-70
2021/10/27 02:39:20;;;;;;;2.53;1.45;;;;;;;9.90;92.68;99835.09;5106779;28;20027;-70
2021/10/27 02:41:45;;;;;;;3.75;1.92;;;;;;;9.93;93.04;99819.47;5106532;28;20507;-70
2021/10/27 02:44:11;;;;;;;5.45;2.42;;;;;;;10.00;93.21;99815.06;5088408;28;20044;-70
2021/10/27 02:46:36;;;;;;;4.30;2.33;;;;;;;10.02;93.69;99821.94;5106647;28;20027;-69
2021/10/27 02:49:02;;;;;;;5.15;2.85;;;;;;;10.04;94.21;99808.94;5106449;28;20020;-70
2021/10/27 02:51:27;;;;;;;8.38;3.00;;;;;;;10.10;93.95;99808.84;5106461;28;20012;-70
2021/10/27 02:53:53;;;;;;;8.40;3.25;;;;;;;10.10;94.72;99814.03;5106375;28;20024;-69
2021/10/27 02:56:18;;;;;;;7.18;3.50;;;;;;;10.12;94.98;99798.44;5106444;28;20016;-69
2021/10/27 02:58:43;;;;;;;7.43;3.58;;;;;;;10.24;94.87;99802.56;5121943;28;20260;-69
2021/10/27 03:01:09;;;;;;;10.00;3.90;;;;;;;10.26;94.92;99809.44;5106100;28;20016;-69
2021/10/27 03:03:34;;;;;;;12.35;5.50;;;;;;;10.27;95.40;99795.56;5106151;28;20038;-69
2021/10/27 03:06:01;;;;;;;17.67;5.40;;;;;;;10.25;95.32;99780.94;5106203;28;20024;-71
2021/10/27 03:08:26;;;;;;;26.65;7.55;;;;;;;10.33;95.56;99771.28;5106159;28;20023;-69
2021/10/27 03:10:51;;;;;;;28.27;8.52;;;;;;;10.42;95.80;99788.41;5105774;28;20446;-70
2021/10/27 03:13:17;;;;;;;15.52;4.95;;;;;;;10.41;95.96;99776.34;5106071;28;20019;-70
2021/10/27 03:15:42;;;;;;;24.33;6.80;;;;;;;10.44;96.43;99770.22;5106044;28;20075;-69
2021/10/27 03:18:08;;;;;;;26.33;8.95;;;;;;;10.45;96.76;99753.78;5105148;28;20495;-70
2021/10/27 03:20:33;;;;;;;34.25;10.55;;;;;;;10.56;96.96;99758.81;5105705;28;20468;-69
2021/10/27 03:23:00;;;;;;;33.30;9.45;;;;;;;10.48;96.95;99741.63;5087718;28;20024;-69
2021/10/27 03:25:25;;;;;;;36.45;11.63;;;;;;;10.60;97.08;99748.34;5105660;28;20072;-69
2021/10/27 03:27:51;;;;;;;43.78;9.30;;;;;;;10.65;96.82;99746.47;5104641;28;20061;-69
2021/10/27 03:30:16;;;;;;;28.33;8.15;;;;;;;10.70;97.34;99750.75;5104884;28;20349;-70
2021/10/27 03:32:42;;;;;;;39.75;9.55;;;;;;;10.76;97.26;99753.22;5105806;28;20020;-70
2021/10/27 03:35:07;;;;;;;42.95;12.43;;;;;;;10.82;97.27;99744.44;5105751;28;20031;-70
2021/10/27 03:37:33;;;;;;;40.67;9.57;;;;;;;10.82;97.51;99750.50;5105594;28;20030;-69
2021/10/27 03:39:59;;;;;;;30.98;11.73;;;;;;;10.86;97.59;99733.13;5105508;28;20027;-69
2021/10/27 03:42:25;;;;;;;50.35;12.43;;;;;;;10.89;97.36;99744.28;5105401;28;20084;-69
2021/10/27 03:44:50;;;;;;;30.13;9.95;;;;;;;10.84;97.83;99737.47;5105503;28;20048;-69
2021/10/27 03:47:15;;;;;;;46.03;12.73;;;;;;;10.91;98.01;99750.31;5105284;28;20063;-70
2021/10/27 03:49:41;;;;;;;50.55;14.13;;;;;;;10.96;97.69;99741.59;5105230;28;20024;-70
2021/10/27 03:52:06;;;;;;;41.08;10.85;;;;;;;10.90;97.94;99724.38;5105224;28;20031;-69
2021/10/27 03:54:32;;;;;;;37.67;11.77;;;;;;;10.89;98.12;99718.31;5105509;28;20024;-70
2021/10/27 03:56:57;;;;;;;43.78;11.98;;;;;;;10.98;98.13;99729.41;5104872;28;20020;-69
2021/10/27 03:59:22;;;;;;;34.90;12.18;;;;;;;11.00;98.03;99714.66;5086105;28;20474;-70
2021/10/27 04:01:48;;;;;;;41.03;12.75;;;;;;;11.01;98.21;99731.94;5086134;28;20028;-69
2021/10/27 04:04:13;;;;;;;45.35;13.15;;;;;;;10.81;98.09;99699.47;5105089;28;20027;-70
2021/10/27 04:06:38;;;;;;;29.02;9.25;;;;;;;11.01;98.35;99731.94;5104772;28;20024;-69
2021/10/27 04:09:04;;;;;;;46.20;13.65;;;;;;;10.95;98.51;99719.09;5086808;28;20035;-70
2021/10/27 04:11:29;;;;;;;64.85;14.27;;;;;;;10.96;98.48;99703.47;5104744;28;20028;-69
2021/10/27 04:13:55;;;;;;;62.97;15.45;;;;;;;11.07;98.35;99717.97;5104630;28;20073;-69
2021/10/27 04:16:21;;;;;;;56.78;15.68;;;;;;;11.06;98.45;99705.84;5104687;28;20024;-70
2021/10/27 04:18:46;;;;;;;50.15;14.43;;;;;;;11.11;98.28;99706.63;5104586;28;20016;-69
2021/10/27 04:21:11;;;;;;;41.85;13.63;;;;;;;11.12;98.32;99701.38;5104615;28;20046;-69
2021/10/27 04:23:37;;;;;;;29.75;8.52;;;;;;;11.13;98.59;99703.09;5104352;28;20020;-70
2021/10/27 04:26:02;;;;;;;36.08;12.32;;;;;;;11.07;98.77;99690.25;5120034;28;20085;-70
2021/10/27 04:28:27;;;;;;;36.22;10.43;;;;;;;11.07;98.70;99668.63;5103285;28;20028;-69
2021/10/27 04:30:53;;;;;;;38.83;12.30;;;;;;;11.07;98.69;99685.03;5086303;28;20054;-70
2021/10/27 04:33:21;;;;;;;32.90;10.50;;;;;;;11.07;98.82;99682.44;5086178;28;20464;-69
2021/10/27 04:35:47;;;;;;;20.23;7.53;;;;;;;11.20;99.04;99682.19;5085952;28;20435;-69
2021/10/27 04:38:14;;;;;;;53.05;14.18;;;;;;;11.18;98.92;99682.22;5104277;28;20079;-68
2021/10/27 04:40:42;;;;;;;52.38;14.23;;;;;;;11.13;99.08;99684.06;5104247;28;20524;-69
2021/10/27 04:43:08;;;;;;;41.78;13.77;;;;;;;11.22;99.16;99680.41;5104300;28;20028;-69
2021/10/27 04:45:34;;;;;;;36.20;12.48;;;;;;;11.22;98.82;99686.47;5086001;28;20060;-67
2021/10/27 04:47:59;;;;;;;44.53;14.00;;;;;;;11.31;98.86;99687.97;5085650;28;20023;-67
2021/10/27 04:50:25;;;;;;;49.45;13.40;;;;;;;11.30;98.85;99680.22;5104275;28;20089;-67
2021/10/27 04:52:50;;;;;;;39.00;14.20;;;;;;;11.32;98.99;99681.91;5104032;28;20024;-68
2021/10/27 04:55:15;;;;;;;61.78;18.20;;;;;;;11.34;99.27;99677.50;5085763;28;20024;-67
2021/10/27 04:57:41;;;;;;;42.78;17.25;;;;;;;11.27;99.16;99661.22;5085440;28;20355;-68
2021/10/27 05:00:07;;;;;;;53.38;14.50;;;;;;;11.38;99.12;99684.38;5103967;28;20232;-67
2021/10/27 05:02:32;;;;;;;59.47;19.50;;;;;;;11.42;99.28;99679.09;5103868;28;20028;-67
2021/10/27 05:04:57;;;;;;;73.00;20.73;;;;;;;11.47;99.03;99665.09;5103758;28;20020;-67
2021/10/27 05:07:24;;;;;;;56.88;17.20;;;;;;;11.47;98.90;99654.69;5103781;28;20046;-67
2021/10/27 05:09:50;;;;;;;40.13;11.07;;;;;;;11.33;98.73;99631.63;5103857;28;20016;-66
2021/10/27 05:12:15;;;;;;;63.47;18.27;;;;;;;11.48;99.18;99668.53;5103602;28;20078;-67
2021/10/27 05:14:41;;;;;;;50.58;16.30;;;;;;;11.50;98.98;99643.38;5103775;28;20019;-66
2021/10/27 05:17:12;;;;;;;45.75;13.77;;;;;;;11.49;99.07;99644.25;5103703;28;20040;-67
2021/10/27 05:19:39;;;;;;;24.15;7.03;;;;;;;11.51;99.09;99653.75;5103630;28;20016;-68
2021/10/27 05:22:06;;;;;;;49.28;17.45;;;;;;;11.49;99.20;99642.50;5103733;28;20112;-68
2021/10/27 05:24:31;;;;;;;45.53;11.00;;;;;;;11.42;99.53;99633.19;5103207;28;20078;-68
2021/10/27 05:26:56;;;;;;;56.65;15.98;;;;;;;11.37;99.50;99628.06;5085127;28;20028;-69
2021/10/27 05:29:22;;;;;;;30.05;10.02;;;;;;;11.50;99.69;99649.41;5103416;28;20032;-68
2021/10/27 05:31:48;;;;;;;79.25;18.80;;;;;;;11.52;99.92;99657.16;5103728;28;20095;-68
2021/10/27 05:34:13;;;;;;;66.82;19.67;;;;;;;11.55;99.68;99657.09;5103629;28;20083;-68
2021/10/27 05:36:39;;;;;;;72.57;19.30;;;;;;;11.56;99.70;99644.97;5103621;28;20391;-69
2021/10/27 05:39:04;;;;;;;48.63;13.43;;;;;;;11.60;99.69;99639.66;5103610;28;20077;-68
2021/10/27 05:41:31;;;;;;;67.90;17.05;;;;;;;11.61;99.41;99648.31;5107381;28;20067;-68
2021/10/27 05:43:57;;;;;;;49.95;15.07;;;;;;;11.65;99.34;99635.19;5107650;28;20043;-68
2021/10/27 05:46:22;;;;;;;64.57;19.48;;;;;;;11.61;99.59;99640.50;5107842;28;20092;-68
2021/10/27 05:48:56;;;;;;;65.85;17.80;;;;;;;11.62;99.65;99642.19;5107552;28;20531;-68
2021/10/27 05:56:49;;;;;;;64.72;16.40;;;;;;;11.60;99.73;99641.38;5107476;28;20031;-67
2021/10/27 05:59:15;;;;;;;74.35;16.85;;;;;;;11.60;99.77;99651.78;5107297;28;20016;-67
2021/10/27 06:01:40;;;;;;;59.13;17.60;;;;;;;11.66;99.72;99646.44;5107419;28;20027;-67
2021/10/27 06:04:05;;;;;;;57.72;16.90;;;;;;;11.66;99.66;99641.25;5107449;28;20020;-68
2021/10/27 06:06:31;;;;;;;65.07;15.88;;;;;;;11.64;99.54;99656.03;5107472;28;20058;-68
2021/10/27 06:08:59;;;;;;;60.55;15.93;;;;;;;11.64;99.70;99637.81;5107273;28;20063;-67
2021/10/27 06:11:24;;;;;;;57.60;13.30;;;;;;;11.61;99.95;99641.34;5088963;28;20140;-67
2021/10/27 06:13:50;;;;;;;47.85;12.30;;;;;;;11.63;99.73;99639.56;5107237;28;20043;-67
2021/10/27 06:16:15;;;;;;;73.32;16.65;;;;;;;11.68;99.56;99642.03;5107249;28;20023;-67
2021/10/27 06:18:44;;;;;;;52.75;13.60;;;;;;;11.65;99.69;99647.31;5106798;28;20051;-67
2021/10/27 06:21:12;;;;;;;63.08;14.88;;;;;;;11.58;99.72;99631.03;5107190;28;20051;-67
2021/10/27 06:23:39;;;;;;;39.97;8.30;;;;;;;11.68;99.50;99644.66;5106708;28;20027;-66
2021/10/27 06:26:05;;;;;;;78.43;17.75;;;;;;;11.70;99.77;99650.66;5122454;28;20016;-68
2021/10/27 06:28:36;;;;;;;45.42;13.15;;;;;;;11.67;99.77;99637.75;5106869;28;20088;-68
2021/10/27 06:31:07;;;;;;;72.90;18.00;;;;;;;11.72;99.85;99651.50;5106827;28;20383;-67
2021/10/27 06:33:50;;;;;;;45.40;14.43;;;;;;;11.76;99.44;99634.03;5106761;28;20092;-67
2021/10/27 06:36:23;;;;;;;72.05;15.68;;;;;;;11.72;99.54;99653.22;5088415;28;20027;-67
2021/10/27 06:46:48;;;;;;;72.32;16.10;;;;;;;11.75;99.45;99658.34;5106804;28;20054;-68
2021/10/27 06:49:13;;;;;;;57.78;13.25;;;;;;;11.67;99.67;99642.09;5088061;28;20027;-66
2021/10/27 06:51:41;;;;;;;59.10;15.18;;;;;;;11.59;99.77;99627.53;5105401;28;20039;-68
2021/10/27 06:54:07;;;;;;;63.75;15.70;;;;;;;11.77;99.67;99661.78;5106394;28;20024;-66
2021/10/27 06:56:35;;;;;;;61.17;12.98;;;;;;;11.75;99.64;99658.34;5106275;28;20031;-67
2021/10/27 07:17:31;;;;;;;50.63;12.48;;;;;;;11.81;99.84;99671.19;5106018;28;20031;-68
2021/10/27 07:19:57;;;;;;;61.38;11.45;;;;;;;11.76;99.96;99662.66;5105975;28;20028;-68
2021/10/27 07:22:22;;;;;;;56.08;13.43;;;;;;;11.79;99.94;99662.56;5105728;28;20099;-69
2021/10/27 07:24:48;;;;;;;47.15;10.70;;;;;;;11.80;99.92;99674.69;5105628;28;20052;-69
2021/10/27 07:27:13;;;;;;;53.67;14.20;;;;;;;11.78;100.00;99674.75;5086582;28;20051;-69
2021/10/27 07:29:44;;;;;;;30.73;7.28;;;;;;;11.78;100.00;99671.28;5104824;28;20045;-68
2021/10/27 07:32:12;;;;;;;61.67;14.48;;;;;;;11.77;100.00;99677.38;5105595;28;20024;-68
2021/10/27 07:34:44;;;;;;;60.70;16.05;;;;;;;11.78;100.00;99668.69;5087344;28;20095;-68
2021/10/27 07:42:25;;;;;;;50.03;13.05;;;;;;;11.81;100.00;99681.59;5105633;28;20028;-68
2021/10/27 07:44:50;;;;;;;38.95;9.02;;;;;;;11.77;100.00;99686.00;5105360;28;20024;-68
2021/10/27 07:47:16;;;;;;;68.53;17.48;;;;;;;11.79;100.00;99691.19;5105446;28;20024;-69
2021/10/27 07:49:42;;;;;;;60.30;13.88;;;;;;;11.77;100.00;99682.59;5105236;28;20031;-69
2021/10/27 07:52:10;;;;;;;42.30;9.50;;;;;;;11.70;100.00;99676.66;5105172;28;20024;-69
2021/10/27 07:54:36;;;;;;;84.65;17.02;;;;;;;11.77;100.00;99698.19;5105182;28;20032;-69
2021/10/27 07:57:02;;;;;;;88.40;15.07;;;;;;;11.76;100.00;99696.47;5104943;28;20027;-69
2021/10/27 07:59:29;;;;;;;42.42;10.70;;;;;;;11.75;100.00;99693.03;5086414;28;20058;-68
2021/10/27 08:01:55;;;;;;;70.63;15.80;;;;;;;11.75;100.00;99703.44;5104955;28;20130;-68
2021/10/27 08:04:20;;;;;;;86.00;15.43;;;;;;;11.80;100.00;99694.63;5104753;28;20020;-67
2021/10/27 08:06:46;;;;;;;51.45;10.50;;;;;;;11.80;100.00;99697.25;5105197;28;20024;-69
2021/10/27 08:09:12;;;;;;;65.43;13.52;;;;;;;11.75;100.00;99700.81;5104794;28;20070;-68
2021/10/27 08:11:38;;;;;;;32.80;8.35;;;;;;;11.74;100.00;99695.66;5104955;28;20035;-69
2021/10/27 08:14:03;;;;;;;61.03;12.43;;;;;;;11.74;99.98;99700.88;5086722;28;20055;-68
2021/10/27 08:16:29;;;;;;;64.90;13.73;;;;;;;11.73;100.00;99712.13;5104733;28;20027;-68
2021/10/27 08:18:54;;;;;;;61.03;12.88;;;;;;;11.60;100.00;99689.03;5103827;28;20028;-68
2021/10/27 08:21:20;;;;;;;64.07;14.50;;;;;;;11.63;100.00;99703.69;5103494;28;20056;-69
2021/10/27 08:23:46;;;;;;;63.25;16.25;;;;;;;11.69;100.00;99716.56;5102680;28;20027;-70
2021/10/27 08:26:17;;;;;;;70.00;16.77;;;;;;;11.55;100.00;99697.84;5103995;28;20028;-69
2021/10/27 08:28:52;;;;;;;51.17;12.77;;;;;;;11.69;100.00;99706.19;5086249;28;20023;-68
2021/10/27 08:34:34;;;;;;;71.50;15.60;;;;;;;11.67;100.00;99717.50;5104595;28;20050;-70
2021/10/27 08:36:33;;;;;;;47.95;14.82;;;;;;;11.62;100.00;99705.47;5089776;28;20036;-69
2021/10/27 08:39:00;;;;;;;71.05;16.55;;;;;;;11.67;100.00;99722.69;5104487;28;20474;-69
2021/10/27 08:41:26;;;;;;;62.63;15.68;;;;;;;11.68;100.00;99725.25;5104081;28;20463;-69
2021/10/27 08:43:51;;;;;;;40.78;10.80;;;;;;;11.67;100.00;99735.69;5104368;28;20028;-70
2021/10/27 08:46:17;;;;;;;65.65;13.27;;;;;;;11.70;100.00;99727.81;5104178;28;20084;-69
2021/10/27 08:48:49;;;;;;;71.30;14.88;;;;;;;11.63;100.00;99717.56;5104106;28;20081;-69
2021/10/27 08:51:15;;;;;;;61.40;14.75;;;;;;;11.67;100.00;99733.94;5104105;28;20020;-69
2021/10/27 08:53:41;;;;;;;55.40;13.75;;;;;;;11.60;100.00;99717.63;5104287;28;20034;-68
2021/10/27 08:56:07;;;;;;;65.70;14.38;;;;;;;11.75;100.00;99738.97;5103865;28;20028;-68
2021/10/27 08:58:49;;;;;;;80.00;16.15;;;;;;;11.79;100.00;99727.59;5104055;28;20175;-69
2021/10/27 09:01:45;;;;;;;56.20;13.77;;;;;;;11.80;100.00;99734.50;5103937;28;20020;-69
2021/10/27 09:04:12;;;;;;;64.32;15.18;;;;;;;11.78;100.00;99746.69;5103441;28;20035;-69
2021/10/27 09:07:03;;;;;;;79.20;15.60;;;;;;;11.77;100.00;99745.00;5104139;28;20115;-69
2021/10/27 10:05:15;;;;;;;69.55;13.75;;;;;;;12.01;100.00;99785.13;5020840;28;20045;-70
2021/10/27 10:07:41;;;;;;;56.30;13.93;;;;;;;12.01;100.00;99781.69;5020675;28;20057;-70
2021/10/27 10:10:09;;;;;;;49.17;11.43;;;;;;;12.05;100.00;99783.31;5020929;28;20038;-70
2021/10/27 10:12:44;;;;;;;57.50;12.77;;;;;;;12.07;100.00;99797.16;5020482;28;20098;-69
2021/10/27 10:15:11;;;;;;;38.40;10.75;;;;;;;12.12;100.00;99769.28;5020487;28;20069;-69
2021/10/27 10:17:43;;;;;;;27.40;8.88;;;;;;;12.06;100.00;99790.22;5020182;28;20074;-69
2021/10/27 10:20:10;;;;;;;38.97;10.18;;;;;;;12.09;100.00;99797.16;5020434;28;20030;-69
2021/10/27 10:22:38;;;;;;;48.45;11.43;;;;;;;12.13;100.00;99801.38;5020365;28;20251;-69
2021/10/27 10:25:22;;;;;;;44.47;13.02;;;;;;;12.13;100.00;99794.44;5020266;28;20074;-69
2021/10/27 10:27:52;;;;;;;49.53;12.73;;;;;;;12.09;100.00;99787.56;5024158;28;20093;-69
2021/10/27 10:30:27;;;;;;;33.42;8.15;;;;;;;12.14;100.00;99795.31;5024127;28;20038;-68
2021/10/27 10:33:01;;;;;;;38.75;9.07;;;;;;;12.14;100.00;99798.72;5024016;28;20054;-69
2021/10/27 10:44:33;;;;;;;37.40;10.68;;;;;;;12.15;100.00;99804.81;5106579;28;20253;-68
2021/10/27 11:38:57;;;;;;;48.70;10.90;;;;;;;12.12;100.00;99838.72;5061863;28;20090;-68
2021/10/27 11:41:33;;;;;;;49.13;11.65;;;;;;;12.11;100.00;99837.84;5062365;28;20453;-69
2021/10/27 11:46:42;;;;;;;60.13;11.85;;;;;;;12.10;100.00;99823.13;5064930;28;20025;-68
2021/10/27 11:49:11;;;;;;;49.45;11.25;;;;;;;12.17;100.00;99836.84;5064874;28;20029;-69
2021/10/27 11:51:37;;;;;;;52.17;11.48;;;;;;;12.02;100.00;99819.81;5080277;28;20020;-68
2021/10/27 11:54:15;;;;;;;48.00;11.93;;;;;;;12.17;100.00;99843.78;5064810;28;20033;-69
2021/10/27 11:56:40;;;;;;;40.50;10.45;;;;;;;12.17;100.00;99844.66;5064620;28;20466;-68
2021/10/27 11:59:06;;;;;;;70.53;15.43;;;;;;;12.21;100.00;99855.84;5064591;28;20025;-68
2021/10/27 12:01:36;;;;;;;53.70;12.80;;;;;;;12.25;100.00;99855.72;5064612;28;20039;-68
2021/10/27 12:04:06;;;;;;;45.35;11.13;;;;;;;12.21;100.00;99846.28;5064845;28;20060;-68
2021/10/27 12:17:59;;;;;;;44.00;11.13;;;;;;;12.26;100.00;99877.41;5064311;28;20142;-66
2021/10/27 12:20:52;;;;;;;46.88;12.50;;;;;;;12.26;100.00;99862.66;5064168;28;20032;-66
2021/10/27 12:23:25;;;;;;;42.63;10.10;;;;;;;12.30;100.00;99873.00;5064161;28;20044;-67
2021/10/27 12:25:53;;;;;;;42.35;11.52;;;;;;;12.24;100.00;99864.44;5103752;28;20044;-66
2021/10/27 12:28:25;;;;;;;40.42;10.05;;;;;;;12.30;100.00;99879.03;5085856;28;20028;-66
2021/10/27 12:30:51;;;;;;;58.78;12.68;;;;;;;12.34;100.00;99885.03;5104692;28;20445;-66
2021/10/27 12:33:17;;;;;;;56.25;13.15;;;;;;;12.34;100.00;99885.88;5104395;28;20640;-67
2021/10/27 12:35:43;;;;;;;45.92;13.18;;;;;;;12.32;100.00;99879.00;5104277;28;20099;-66
2021/10/27 12:38:20;;;;;;;53.80;13.60;;;;;;;12.31;100.00;99878.16;5104218;28;20023;-67
2021/10/27 12:40:48;;;;;;;69.43;14.45;;;;;;;12.34;100.00;99883.28;5104151;28;20077;-66
2021/10/27 12:43:16;;;;;;;48.55;10.65;;;;;;;12.34;100.00;99891.09;5104103;28;20052;-66
2021/10/27 12:45:50;;;;;;;58.42;13.30;;;;;;;12.34;100.00;99880.69;5104101;28;20024;-66
2021/10/27 12:48:17;;;;;;;65.20;13.50;;;;;;;12.29;100.00;99885.13;5103994;28;20016;-66
2021/10/27 12:51:01;;;;;;;63.00;15.30;;;;;;;12.30;100.00;99892.03;5103047;28;20057;-66
2021/10/27 12:53:47;;;;;;;65.57;14.38;;;;;;;12.30;100.00;99891.22;5085680;28;20016;-66
2021/10/27 12:56:14;;;;;;;74.70;13.98;;;;;;;12.34;100.00;99898.03;5104141;28;20016;-66
2021/10/27 12:58:45;;;;;;;65.68;13.85;;;;;;;12.35;100.00;99894.53;5085589;28;20031;-66
2021/10/27 13:11:52;;;;;;;54.35;13.30;;;;;;;12.27;100.00;99903.38;5103594;28;20397;-66
2021/10/27 13:30:13;;;;;;;49.70;11.70;;;;;;;12.34;100.00;99917.13;5103717;28;20174;-67
2021/10/27 13:32:45;;;;;;;82.00;15.70;;;;;;;12.32;100.00;99929.31;5102746;28;20059;-67
2021/10/27 13:35:10;;;;;;;;;;;;;;;12.35;100.00;99912.75;5085575;28;20026;-67
2021/10/27 13:37:36;;;;;;;57.25;13.32;;;;;;;12.30;100.00;99931.09;5103269;28;19952;-68
2021/10/27 13:40:03;;;;;;;55.47;12.50;;;;;;;12.31;100.00;99925.00;5103257;28;20028;-67
2021/10/27 13:45:08;;;;;;;41.55;10.02;;;;;;;12.26;100.00;99922.50;5103206;28;20035;-68
2021/10/27 13:58:54;;;;;;;50.30;10.88;;;;;;;12.25;100.00;99927.75;5103118;28;20031;-68
2021/10/27 14:06:00;;;;;;;49.33;10.25;;;;;;;12.29;100.00;99934.59;5105893;28;20031;-68
2021/10/27 14:07:17;;;;;;;41.85;8.95;;;;;;;12.25;100.00;99944.22;5106869;28;20097;-68
2021/10/27 14:09:57;;;;;;;35.30;9.65;;;;;;;12.25;100.00;99930.34;5107076;28;20016;-67
2021/10/27 14:13:14;;;;;;;27.45;7.45;;;;;;;12.26;100.00;99937.25;5106742;28;20016;-68
2021/10/27 14:18:16;;;;;;;34.65;8.57;;;;;;;12.25;100.00;99939.00;5106890;28;20118;-69
2021/10/27 15:20:49;;;;;;;50.13;10.02;;;;;;;12.12;100.00;99969.63;5105830;28;20111;-68
2021/10/27 15:23:21;;;;;;;45.35;9.95;;;;;;;12.14;100.00;99973.06;5105712;28;20035;-68
2021/10/27 15:28:45;;;;;;;73.80;12.20;;;;;;;12.17;100.00;99971.31;5105268;28;20035;-67
2021/10/27 15:42:24;;;;;;;32.03;9.32;;;;;;;12.23;100.00;99994.59;5105144;28;20035;-69
2021/10/27 15:50:44;;;;;;;24.98;6.82;;;;;;;12.17;100.00;100015.53;5062054;28;20091;-68
2021/10/27 15:53:10;;;;;;;31.58;8.75;;;;;;;12.16;100.00;100008.63;5045133;28;20131;-67
2021/10/27 15:55:36;;;;;;;26.05;7.47;;;;;;;12.11;100.00;100009.56;5043927;28;20036;-69
2021/10/27 15:58:02;;;;;;;28.48;8.25;;;;;;;12.17;100.00;100015.53;5061194;28;20090;-68
2021/10/27 16:00:28;;;;;;;26.42;8.00;;;;;;;12.22;100.00;100021.50;5061688;28;20498;-67
2021/10/27 16:02:53;;;;;;;40.08;11.50;;;;;;;12.19;100.00;100017.22;5061839;28;20444;-68
2021/10/27 16:05:19;;;;;;;42.03;11.25;;;;;;;12.20;100.00;100029.34;5061787;28;20526;-68
2021/10/27 16:07:46;;;;;;;36.95;9.65;;;;;;;12.18;100.00;100020.72;5061881;28;20091;-67
2021/10/27 16:10:19;;;;;;;45.63;13.30;;;;;;;12.20;100.00;100036.28;5061602;28;20057;-68
2021/10/27 16:12:45;;;;;;;43.67;9.50;;;;;;;12.14;100.00;100024.28;5061313;28;20028;-67
2021/10/27 16:15:19;;;;;;;46.75;13.18;;;;;;;12.18;100.00;100028.53;5061720;28;20032;-68
2021/10/27 16:17:45;;;;;;;43.25;10.88;;;;;;;12.19;100.00;100037.19;5066917;28;20021;-68